Lumberton Township, New Jersey
Current Conditions -  °F | °C
As of 8:54 AM on Thursday 29 Jan 2015 (Local Time) from KVAY Reporting Station
Clear Clear  
Wind Chill: 21°   Ceiling: Unl
Heat Index: 21°   Visibility: 10mi
Dew Point:   Wind: 0mph
Humidity: 55%   Direction: NA
Pressure: 30.33"   Gusts: NA
Location:  39.9559°N, 74.8135°W
Report Text: KVAY 291354Z AUTO 00000KT 10SM CLR M06/M14 A3033 RMK AO2 SLP272 T10611139
Loading
Personal Weather Stations






























Interactive Weather Map New forecast layout! Learn more

10-Day Weather Forecast

Advertisements
Track Severe Weather on mobile